Greenville Downtown Airport Greenville US
ICAO: KGMU
IATA: GMU
Category: Medium
Scheduled Services: No

Elevation: 1048 ft
TransAlt. 18000 ft.

Airport Communications:
GREER APP/DEP:118.8
ASOS:127.075
CTAF:119.9
GND:121.25
TWR:119.9
UNICOM:122.95

KGMU Zoom In..

Runways:

(A) RW 01 length 5393 ft width 100 ft
ILS 109.70 / hdg 6

(B) RW 10 length 4000 ft width 80 ft
---- / hdg 96

(C) RW 19 length 5393 ft width 100 ft
---- / hdg 186

(D) RW 28 length 4000 ft width 80 ft
---- / hdg 276

Location; KGMU
Day. 25 / Time. 10.30 Zulu
* Altimeter: 29.80
* Temperature: 14° c. 57.2°f.
* Wind from: 280° Speed 04 kn.
Dewpoint: 13° c.
Visibility: 3 Statute Miles.
Clouds: Overcast 100 ft.
Conditions: Mist.

KGMU 251030Z 28004KT 3SM BR OVC001 14/13 A2980 RMK AO2 T01390133


Wind From 280°
Speed 04 kn.

  YouTube Music Video
 
jpsmedia.com for Web Design  worldairports.se 2018   terms of use